sensor_id;sensor_type;location;lat;lon;timestamp;pressure;altitude;pressure_sealevel;temperature;humidity
498;BME280;39559;48.630;9.162;2023-05-23T00:02:20;97312.44;;;12.97;100.00
498;BME280;39559;48.630;9.162;2023-05-23T00:04:45;97314.66;;;12.89;100.00
498;BME280;39559;48.630;9.162;2023-05-23T00:09:16;97313.47;;;12.78;100.00
498;BME280;39559;48.630;9.162;2023-05-23T00:11:41;97311.97;;;12.90;100.00
498;BME280;39559;48.630;9.162;2023-05-23T00:14:15;97318.66;;;12.78;100.00
498;BME280;39559;48.630;9.162;2023-05-23T00:16:43;97312.19;;;12.85;100.00
498;BME280;39559;48.630;9.162;2023-05-23T00:19:12;97317.16;;;12.74;100.00
498;BME280;39559;48.630;9.162;2023-05-23T00:21:40;97314.91;;;12.68;100.00
498;BME280;39559;48.630;9.162;2023-05-23T00:24:06;97316.56;;;12.69;100.00
498;BME280;39559;48.630;9.162;2023-05-23T00:26:31;97317.50;;;12.84;100.00
498;BME280;39559;48.630;9.162;2023-05-23T00:28:58;97316.41;;;12.72;100.00
498;BME280;39559;48.630;9.162;2023-05-23T00:33:11;97318.34;;;12.68;100.00
498;BME280;39559;48.630;9.162;2023-05-23T00:35:42;97316.72;;;12.66;100.00
498;BME280;39559;48.630;9.162;2023-05-23T00:38:08;97316.16;;;12.61;100.00
498;BME280;39559;48.630;9.162;2023-05-23T00:40:34;97319.50;;;12.63;100.00
498;BME280;39559;48.630;9.162;2023-05-23T00:43:00;97318.22;;;12.54;100.00
498;BME280;39559;48.630;9.162;2023-05-23T00:45:26;97319.31;;;12.50;100.00
498;BME280;39559;48.630;9.162;2023-05-23T00:47:52;97316.88;;;12.47;100.00
498;BME280;39559;48.630;9.162;2023-05-23T00:50:19;97316.97;;;12.61;100.00
498;BME280;39559;48.630;9.162;2023-05-23T00:52:47;97319.13;;;12.53;100.00
498;BME280;39559;48.630;9.162;2023-05-23T00:57:06;97327.06;;;12.52;100.00
498;BME280;39559;48.630;9.162;2023-05-23T00:59:32;97329.41;;;12.56;100.00
498;BME280;39559;48.630;9.162;2023-05-23T01:02:00;97329.97;;;12.45;100.00
498;BME280;39559;48.630;9.162;2023-05-23T01:04:25;97328.38;;;12.43;100.00
498;BME280;39559;48.630;9.162;2023-05-23T01:06:55;97329.28;;;12.42;100.00
498;BME280;39559;48.630;9.162;2023-05-23T01:09:22;97336.50;;;12.37;100.00
498;BME280;39559;48.630;9.162;2023-05-23T01:14:48;97339.28;;;12.34;100.00
498;BME280;39559;48.630;9.162;2023-05-23T01:17:20;97338.41;;;12.33;100.00
498;BME280;39559;48.630;9.162;2023-05-23T01:21:13;97334.78;;;12.53;100.00
498;BME280;39559;48.630;9.162;2023-05-23T01:26:17;97336.91;;;12.29;100.00
498;BME280;39559;48.630;9.162;2023-05-23T01:28:50;97338.22;;;12.20;100.00
498;BME280;39559;48.630;9.162;2023-05-23T01:31:17;97336.47;;;12.21;100.00
498;BME280;39559;48.630;9.162;2023-05-23T01:33:43;97325.66;;;12.28;100.00
498;BME280;39559;48.630;9.162;2023-05-23T01:36:12;97323.66;;;12.34;100.00
498;BME280;39559;48.630;9.162;2023-05-23T01:38:39;97325.09;;;12.39;100.00
498;BME280;39559;48.630;9.162;2023-05-23T01:41:04;97327.03;;;12.36;100.00
498;BME280;39559;48.630;9.162;2023-05-23T01:44:59;97330.03;;;12.28;100.00
498;BME280;39559;48.630;9.162;2023-05-23T01:47:25;97322.28;;;12.26;100.00
498;BME280;39559;48.630;9.162;2023-05-23T01:49:51;97330.03;;;12.28;100.00
498;BME280;39559;48.630;9.162;2023-05-23T01:52:20;97342.44;;;12.23;100.00
498;BME280;39559;48.630;9.162;2023-05-23T01:54:46;97338.53;;;12.14;100.00
498;BME280;39559;48.630;9.162;2023-05-23T01:57:13;97336.84;;;12.13;100.00
498;BME280;39559;48.630;9.162;2023-05-23T01:59:40;97347.09;;;12.16;100.00
498;BME280;39559;48.630;9.162;2023-05-23T02:02:05;97342.84;;;12.15;100.00
498;BME280;39559;48.630;9.162;2023-05-23T02:04:31;97340.66;;;12.41;100.00
498;BME280;39559;48.630;9.162;2023-05-23T02:08:56;97346.28;;;12.16;100.00
498;BME280;39559;48.630;9.162;2023-05-23T02:11:21;97340.38;;;12.12;100.00
498;BME280;39559;48.630;9.162;2023-05-23T02:13:47;97344.50;;;12.16;100.00
498;BME280;39559;48.630;9.162;2023-05-23T02:16:12;97342.72;;;12.17;100.00
498;BME280;39559;48.630;9.162;2023-05-23T02:18:38;97337.53;;;12.17;100.00
498;BME280;39559;48.630;9.162;2023-05-23T02:21:04;97341.28;;;12.11;100.00
498;BME280;39559;48.630;9.162;2023-05-23T02:23:30;97340.53;;;12.09;100.00
498;BME280;39559;48.630;9.162;2023-05-23T02:25:55;97337.31;;;12.04;100.00
498;BME280;39559;48.630;9.162;2023-05-23T02:28:21;97343.59;;;12.17;100.00
498;BME280;39559;48.630;9.162;2023-05-23T02:32:52;97346.97;;;12.02;100.00
498;BME280;39559;48.630;9.162;2023-05-23T02:35:17;97347.91;;;12.01;100.00
498;BME280;39559;48.630;9.162;2023-05-23T02:37:43;97347.91;;;12.01;100.00
498;BME280;39559;48.630;9.162;2023-05-23T02:40:09;97341.63;;;12.05;100.00
498;BME280;39559;48.630;9.162;2023-05-23T02:42:35;97343.47;;;12.03;100.00
498;BME280;39559;48.630;9.162;2023-05-23T02:45:00;97350.72;;;11.96;100.00
498;BME280;39559;48.630;9.162;2023-05-23T02:47:26;97347.13;;;11.99;100.00
498;BME280;39559;48.630;9.162;2023-05-23T02:49:51;97341.63;;;12.05;100.00
498;BME280;39559;48.630;9.162;2023-05-23T02:52:17;97339.16;;;12.02;100.00
498;BME280;39559;48.630;9.162;2023-05-23T02:56:48;97344.69;;;11.96;100.00
498;BME280;39559;48.630;9.162;2023-05-23T02:59:16;97350.31;;;11.86;100.00
498;BME280;39559;48.630;9.162;2023-05-23T03:01:42;97347.25;;;11.78;100.00
498;BME280;39559;48.630;9.162;2023-05-23T03:04:08;97342.97;;;11.77;100.00
498;BME280;39559;48.630;9.162;2023-05-23T03:06:33;97351.63;;;11.78;100.00
498;BME280;39559;48.630;9.162;2023-05-23T03:09:01;97355.81;;;11.80;100.00
498;BME280;39559;48.630;9.162;2023-05-23T03:11:26;97349.31;;;11.89;100.00
498;BME280;39559;48.630;9.162;2023-05-23T03:13:54;97353.00;;;11.85;100.00
498;BME280;39559;48.630;9.162;2023-05-23T03:16:21;97350.31;;;11.86;100.00
498;BME280;39559;48.630;9.162;2023-05-23T03:20:48;97351.09;;;11.88;100.00
498;BME280;39559;48.630;9.162;2023-05-23T03:23:14;97348.19;;;11.95;100.00
498;BME280;39559;48.630;9.162;2023-05-23T03:25:39;97345.53;;;11.96;100.00
498;BME280;39559;48.630;9.162;2023-05-23T03:28:05;97355.59;;;12.02;100.00
498;BME280;39559;48.630;9.162;2023-05-23T03:30:30;97354.91;;;11.99;100.00
498;BME280;39559;48.630;9.162;2023-05-23T03:32:56;97356.75;;;11.97;100.00
498;BME280;39559;48.630;9.162;2023-05-23T03:35:22;97358.31;;;12.01;100.00
498;BME280;39559;48.630;9.162;2023-05-23T03:37:47;97366.19;;;11.99;100.00
498;BME280;39559;48.630;9.162;2023-05-23T03:40:13;97369.63;;;12.00;100.00
498;BME280;39559;48.630;9.162;2023-05-23T03:44:41;97370.47;;;12.00;100.00
498;BME280;39559;48.630;9.162;2023-05-23T03:47:07;97374.38;;;12.09;100.00
498;BME280;39559;48.630;9.162;2023-05-23T03:49:32;97380.94;;;12.16;100.00
498;BME280;39559;48.630;9.162;2023-05-23T03:51:57;97377.94;;;12.24;100.00
498;BME280;39559;48.630;9.162;2023-05-23T03:54:23;97369.78;;;12.32;100.00
498;BME280;39559;48.630;9.162;2023-05-23T03:56:48;97366.72;;;12.57;100.00
498;BME280;39559;48.630;9.162;2023-05-23T03:59:14;97366.97;;;12.52;100.00
498;BME280;39559;48.630;9.162;2023-05-23T04:01:41;97374.03;;;12.50;100.00
498;BME280;39559;48.630;9.162;2023-05-23T04:04:07;97371.41;;;12.50;100.00
498;BME280;39559;48.630;9.162;2023-05-23T04:08:41;97371.16;;;12.55;100.00
498;BME280;39559;48.630;9.162;2023-05-23T04:11:08;97365.25;;;12.51;100.00
498;BME280;39559;48.630;9.162;2023-05-23T04:13:35;97375.09;;;12.46;100.00
498;BME280;39559;48.630;9.162;2023-05-23T04:16:02;97365.44;;;12.48;100.00
498;BME280;39559;48.630;9.162;2023-05-23T04:18:31;97369.50;;;12.54;100.00
498;BME280;39559;48.630;9.162;2023-05-23T04:21:04;97369.84;;;12.63;100.00
498;BME280;39559;48.630;9.162;2023-05-23T04:23:30;97369.69;;;12.66;100.00
498;BME280;39559;48.630;9.162;2023-05-23T04:25:56;97366.75;;;12.73;100.00
498;BME280;39559;48.630;9.162;2023-05-23T04:28:22;97372.56;;;12.78;100.00
498;BME280;39559;48.630;9.162;2023-05-23T04:32:35;97368.97;;;12.96;100.00
498;BME280;39559;48.630;9.162;2023-05-23T04:35:02;97375.59;;;13.02;100.00
498;BME280;39559;48.630;9.162;2023-05-23T04:37:28;97369.22;;;13.07;100.00
498;BME280;39559;48.630;9.162;2023-05-23T04:39:57;97374.78;;;13.17;100.00
498;BME280;39559;48.630;9.162;2023-05-23T04:42:24;97370.72;;;13.28;100.00
498;BME280;39559;48.630;9.162;2023-05-23T04:44:50;97375.72;;;13.32;100.00
498;BME280;39559;48.630;9.162;2023-05-23T04:47:16;97378.06;;;13.37;100.00
498;BME280;39559;48.630;9.162;2023-05-23T04:49:42;97375.72;;;13.32;100.00
498;BME280;39559;48.630;9.162;2023-05-23T04:52:08;97387.34;;;13.42;100.00
498;BME280;39559;48.630;9.162;2023-05-23T04:56:32;97386.91;;;13.66;100.00
498;BME280;39559;48.630;9.162;2023-05-23T04:59:02;97385.44;;;13.76;100.00
498;BME280;39559;48.630;9.162;2023-05-23T05:01:32;97390.31;;;13.82;100.00
498;BME280;39559;48.630;9.162;2023-05-23T05:04:00;97396.84;;;13.90;100.00
498;BME280;39559;48.630;9.162;2023-05-23T05:06:27;97385.84;;;13.85;100.00
498;BME280;39559;48.630;9.162;2023-05-23T05:08:54;97391.47;;;13.77;100.00
498;BME280;39559;48.630;9.162;2023-05-23T05:11:21;97398.34;;;13.63;100.00
498;BME280;39559;48.630;9.162;2023-05-23T05:13:47;97406.25;;;13.62;100.00
498;BME280;39559;48.630;9.162;2023-05-23T05:16:15;97399.34;;;13.61;100.00
498;BME280;39559;48.630;9.162;2023-05-23T05:20:29;97407.84;;;13.65;100.00
498;BME280;39559;48.630;9.162;2023-05-23T05:22:56;97396.81;;;13.75;100.00
498;BME280;39559;48.630;9.162;2023-05-23T05:25:24;97403.38;;;13.82;100.00
498;BME280;39559;48.630;9.162;2023-05-23T05:27:51;97406.94;;;13.96;100.00
498;BME280;39559;48.630;9.162;2023-05-23T05:30:17;97408.19;;;14.05;100.00
498;BME280;39559;48.630;9.162;2023-05-23T05:32:42;97408.66;;;14.11;100.00
498;BME280;39559;48.630;9.162;2023-05-23T05:35:10;97418.38;;;14.24;100.00
498;BME280;39559;48.630;9.162;2023-05-23T05:37:38;97410.84;;;14.33;100.00
498;BME280;39559;48.630;9.162;2023-05-23T05:40:04;97413.13;;;14.39;100.00
498;BME280;39559;48.630;9.162;2023-05-23T05:44:24;97409.94;;;14.49;100.00
498;BME280;39559;48.630;9.162;2023-05-23T05:46:49;97424.34;;;14.56;100.00
498;BME280;39559;48.630;9.162;2023-05-23T05:49:15;97420.38;;;14.65;100.00
498;BME280;39559;48.630;9.162;2023-05-23T05:51:41;97415.72;;;14.70;100.00
498;BME280;39559;48.630;9.162;2023-05-23T05:54:07;97410.38;;;14.71;100.00
498;BME280;39559;48.630;9.162;2023-05-23T05:56:33;97418.69;;;14.78;100.00
498;BME280;39559;48.630;9.162;2023-05-23T05:58:58;97421.13;;;14.81;100.00
498;BME280;39559;48.630;9.162;2023-05-23T06:01:24;97416.53;;;14.85;100.00
498;BME280;39559;48.630;9.162;2023-05-23T06:03:51;97414.69;;;14.87;100.00
498;BME280;39559;48.630;9.162;2023-05-23T06:08:21;97412.06;;;14.87;100.00
498;BME280;39559;48.630;9.162;2023-05-23T06:10:47;97413.38;;;14.94;100.00
498;BME280;39559;48.630;9.162;2023-05-23T06:13:12;97411.41;;;14.97;100.00
498;BME280;39559;48.630;9.162;2023-05-23T06:15:38;97416.25;;;15.04;100.00
498;BME280;39559;48.630;9.162;2023-05-23T06:18:04;97416.06;;;15.21;100.00
498;BME280;39559;48.630;9.162;2023-05-23T06:20:29;97414.94;;;15.11;100.00
498;BME280;39559;48.630;9.162;2023-05-23T06:22:55;97426.50;;;15.21;100.00
498;BME280;39559;48.630;9.162;2023-05-23T06:25:20;97428.91;;;15.24;100.00
498;BME280;39559;48.630;9.162;2023-05-23T06:27:46;97426.22;;;15.26;100.00
498;BME280;39559;48.630;9.162;2023-05-23T06:32:18;97419.75;;;15.31;100.00
498;BME280;39559;48.630;9.162;2023-05-23T06:34:43;97428.38;;;15.33;100.00
498;BME280;39559;48.630;9.162;2023-05-23T06:37:09;97429.94;;;15.36;100.00
498;BME280;39559;48.630;9.162;2023-05-23T06:39:34;97426.91;;;15.42;100.00
498;BME280;39559;48.630;9.162;2023-05-23T06:42:00;97423.63;;;15.53;100.00
498;BME280;39559;48.630;9.162;2023-05-23T06:44:26;97429.81;;;15.52;100.00
498;BME280;39559;48.630;9.162;2023-05-23T06:46:52;97432.63;;;15.49;100.00
498;BME280;39559;48.630;9.162;2023-05-23T06:49:22;97435.13;;;15.65;100.00
498;BME280;39559;48.630;9.162;2023-05-23T06:51:48;97439.47;;;15.64;100.00
498;BME280;39559;48.630;9.162;2023-05-23T06:56:15;97437.63;;;15.66;100.00
498;BME280;39559;48.630;9.162;2023-05-23T06:58:40;97438.47;;;15.67;100.00
498;BME280;39559;48.630;9.162;2023-05-23T07:01:06;97445.03;;;15.60;100.00
498;BME280;39559;48.630;9.162;2023-05-23T07:03:31;97455.09;;;15.66;100.00
498;BME280;39559;48.630;9.162;2023-05-23T07:05:57;97447.78;;;15.71;100.00
498;BME280;39559;48.630;9.162;2023-05-23T07:08:23;97454.81;;;15.70;100.00
498;BME280;39559;48.630;9.162;2023-05-23T07:10:49;97448.09;;;15.66;100.00
498;BME280;39559;48.630;9.162;2023-05-23T07:13:14;97451.66;;;15.65;100.00
498;BME280;39559;48.630;9.162;2023-05-23T07:15:40;97461.72;;;15.71;100.00
498;BME280;39559;48.630;9.162;2023-05-23T07:20:11;97458.66;;;15.65;100.00
498;BME280;39559;48.630;9.162;2023-05-23T07:22:37;97466.13;;;15.71;100.00
498;BME280;39559;48.630;9.162;2023-05-23T07:25:02;97462.84;;;15.67;100.00
498;BME280;39559;48.630;9.162;2023-05-23T07:27:31;97466.53;;;15.65;100.00
498;BME280;39559;48.630;9.162;2023-05-23T07:29:57;97474.59;;;15.47;100.00
498;BME280;39559;48.630;9.162;2023-05-23T07:32:23;97477.38;;;15.44;100.00
498;BME280;39559;48.630;9.162;2023-05-23T07:34:48;97480.56;;;15.35;100.00
498;BME280;39559;48.630;9.162;2023-05-23T07:37:14;97481.81;;;15.29;100.00
498;BME280;39559;48.630;9.162;2023-05-23T07:39:40;97482.53;;;15.31;100.00
498;BME280;39559;48.630;9.162;2023-05-23T07:44:10;97488.72;;;15.16;100.00
498;BME280;39559;48.630;9.162;2023-05-23T07:46:35;97490.31;;;15.19;100.00
498;BME280;39559;48.630;9.162;2023-05-23T07:49:01;97493.13;;;15.15;100.00
498;BME280;39559;48.630;9.162;2023-05-23T07:51:26;97494.53;;;15.07;100.00
498;BME280;39559;48.630;9.162;2023-05-23T07:53:52;97503.69;;;15.00;100.00
498;BME280;39559;48.630;9.162;2023-05-23T07:56:17;97499.84;;;14.91;100.00
498;BME280;39559;48.630;9.162;2023-05-23T07:58:43;97501.78;;;14.87;100.00
498;BME280;39559;48.630;9.162;2023-05-23T08:01:08;97502.09;;;14.83;100.00
498;BME280;39559;48.630;9.162;2023-05-23T08:03:34;97500.75;;;14.75;100.00
498;BME280;39559;48.630;9.162;2023-05-23T08:08:08;97508.19;;;14.67;100.00
498;BME280;39559;48.630;9.162;2023-05-23T08:10:33;97500.66;;;14.63;100.00
498;BME280;39559;48.630;9.162;2023-05-23T08:12:59;97495.63;;;14.74;100.00
498;BME280;39559;48.630;9.162;2023-05-23T08:15:25;97500.63;;;14.77;100.00
498;BME280;39559;48.630;9.162;2023-05-23T08:17:51;97508.97;;;14.84;100.00
498;BME280;39559;48.630;9.162;2023-05-23T08:20:21;97503.75;;;14.84;100.00
498;BME280;39559;48.630;9.162;2023-05-23T08:22:46;97509.63;;;14.87;100.00
498;BME280;39559;48.630;9.162;2023-05-23T08:25:12;97511.88;;;14.79;100.00
498;BME280;39559;48.630;9.162;2023-05-23T08:27:37;97512.72;;;14.80;100.00
498;BME280;39559;48.630;9.162;2023-05-23T08:32:00;97518.44;;;14.86;100.00
498;BME280;39559;48.630;9.162;2023-05-23T08:34:25;97519.16;;;14.88;100.00
498;BME280;39559;48.630;9.162;2023-05-23T08:36:51;97529.53;;;14.90;100.00
498;BME280;39559;48.630;9.162;2023-05-23T08:39:17;97522.69;;;14.73;100.00
498;BME280;39559;48.630;9.162;2023-05-23T08:41:43;97538.56;;;14.54;100.00
498;BME280;39559;48.630;9.162;2023-05-23T08:44:09;97535.72;;;14.58;100.00
498;BME280;39559;48.630;9.162;2023-05-23T08:46:46;97534.69;;;14.61;100.00
498;BME280;39559;48.630;9.162;2023-05-23T08:49:16;97545.75;;;14.50;100.00
498;BME280;39559;48.630;9.162;2023-05-23T08:51:43;97546.69;;;14.33;100.00
498;BME280;39559;48.630;9.162;2023-05-23T08:55:58;97557.00;;;14.20;100.00
498;BME280;39559;48.630;9.162;2023-05-23T08:58:29;97555.31;;;14.19;100.00
498;BME280;39559;48.630;9.162;2023-05-23T09:00:58;97565.16;;;14.30;100.00
498;BME280;39559;48.630;9.162;2023-05-23T09:03:25;97561.88;;;14.27;100.00
498;BME280;39559;48.630;9.162;2023-05-23T09:05:52;97562.06;;;14.24;100.00
498;BME280;39559;48.630;9.162;2023-05-23T09:08:19;97565.41;;;14.26;100.00
498;BME280;39559;48.630;9.162;2023-05-23T09:10:45;97564.66;;;14.24;100.00
498;BME280;39559;48.630;9.162;2023-05-23T09:13:10;97565.59;;;14.23;100.00
498;BME280;39559;48.630;9.162;2023-05-23T09:15:36;97566.75;;;14.33;100.00
498;BME280;39559;48.630;9.162;2023-05-23T09:20:03;97568.25;;;14.37;100.00
498;BME280;39559;48.630;9.162;2023-05-23T09:22:34;97570.47;;;14.45;100.00
498;BME280;39559;48.630;9.162;2023-05-23T09:25:01;97565.91;;;14.32;100.00
498;BME280;39559;48.630;9.162;2023-05-23T09:27:27;97571.53;;;14.40;100.00
498;BME280;39559;48.630;9.162;2023-05-23T09:29:53;97579.63;;;14.52;100.00
498;BME280;39559;48.630;9.162;2023-05-23T09:32:19;97575.91;;;14.56;100.00
498;BME280;39559;48.630;9.162;2023-05-23T09:34:57;97576.69;;;14.58;100.00
498;BME280;39559;48.630;9.162;2023-05-23T09:37:33;97580.13;;;14.58;100.00
498;BME280;39559;48.630;9.162;2023-05-23T09:40:02;97582.56;;;14.46;100.00
498;BME280;39559;48.630;9.162;2023-05-23T09:43:51;97591.84;;;14.51;100.00
498;BME280;39559;48.630;9.162;2023-05-23T09:46:18;97583.94;;;14.37;100.00
498;BME280;39559;48.630;9.162;2023-05-23T09:48:51;97592.56;;;14.39;100.00
498;BME280;39559;48.630;9.162;2023-05-23T09:51:18;97590.34;;;14.47;100.00
498;BME280;39559;48.630;9.162;2023-05-23T09:53:48;97595.16;;;14.39;100.00
498;BME280;39559;48.630;9.162;2023-05-23T09:56:23;97589.66;;;14.44;100.00
498;BME280;39559;48.630;9.162;2023-05-23T09:58:49;97585.69;;;14.52;100.00
498;BME280;39559;48.630;9.162;2023-05-23T10:01:16;97588.47;;;14.65;100.00
498;BME280;39559;48.630;9.162;2023-05-23T10:03:52;97589.53;;;14.77;100.00
498;BME280;39559;48.630;9.162;2023-05-23T10:07:46;97584.28;;;15.07;100.00
498;BME280;39559;48.630;9.162;2023-05-23T10:10:12;97582.19;;;15.28;100.00
498;BME280;39559;48.630;9.162;2023-05-23T10:12:44;97575.66;;;15.50;100.00
498;BME280;39559;48.630;9.162;2023-05-23T10:15:17;97576.75;;;15.74;100.00
498;BME280;39559;48.630;9.162;2023-05-23T10:18:04;97579.28;;;15.90;100.00
498;BME280;39559;48.630;9.162;2023-05-23T10:20:31;97579.75;;;15.97;100.00
498;BME280;39559;48.630;9.162;2023-05-23T10:23:01;97577.56;;;16.04;100.00
498;BME280;39559;48.630;9.162;2023-05-23T10:25:27;97568.41;;;15.97;100.00
498;BME280;39559;48.630;9.162;2023-05-23T10:27:58;97582.47;;;15.96;100.00
498;BME280;39559;48.630;9.162;2023-05-23T10:31:42;97579.25;;;16.05;100.00
498;BME280;39559;48.630;9.162;2023-05-23T10:37:02;97565.72;;;16.25;100.00
498;BME280;39559;48.630;9.162;2023-05-23T10:39:58;97572.28;;;16.45;100.00
498;BME280;39559;48.630;9.162;2023-05-23T10:45:23;97575.50;;;17.03;100.00
498;BME280;39559;48.630;9.162;2023-05-23T10:47:51;97567.53;;;17.05;100.00
498;BME280;39559;48.630;9.162;2023-05-23T10:50:34;97567.91;;;16.99;100.00
498;BME280;39559;48.630;9.162;2023-05-23T10:55:40;97573.91;;;16.61;100.00
498;BME280;39559;48.630;9.162;2023-05-23T10:58:10;97576.22;;;16.65;100.00
498;BME280;39559;48.630;9.162;2023-05-23T11:00:37;97576.53;;;16.61;100.00
498;BME280;39559;48.630;9.162;2023-05-23T11:03:04;97574.53;;;16.64;100.00
498;BME280;39559;48.630;9.162;2023-05-23T11:05:34;97579.16;;;16.61;100.00
498;BME280;39559;48.630;9.162;2023-05-23T11:08:07;97574.53;;;16.64;100.00
498;BME280;39559;48.630;9.162;2023-05-23T11:13:21;97574.97;;;16.71;100.00
498;BME280;39559;48.630;9.162;2023-05-23T11:15:47;97579.47;;;16.69;100.00
498;BME280;39559;48.630;9.162;2023-05-23T11:19:33;97566.50;;;16.80;100.00
498;BME280;39559;48.630;9.162;2023-05-23T11:22:01;97566.06;;;17.01;100.00
498;BME280;39559;48.630;9.162;2023-05-23T11:27:11;97571.59;;;17.09;100.00
498;BME280;39559;48.630;9.162;2023-05-23T11:29:37;97568.06;;;17.10;100.00
498;BME280;39559;48.630;9.162;2023-05-23T11:32:16;97571.06;;;16.91;100.00
498;BME280;39559;48.630;9.162;2023-05-23T11:34:43;97568.81;;;16.72;100.00
498;BME280;39559;48.630;9.162;2023-05-23T11:37:08;97567.44;;;16.79;100.00
498;BME280;39559;48.630;9.162;2023-05-23T11:39:36;97565.28;;;16.86;100.00
498;BME280;39559;48.630;9.162;2023-05-23T11:43:48;97564.34;;;17.00;100.00
498;BME280;39559;48.630;9.162;2023-05-23T11:46:14;97560.47;;;17.18;100.00
498;BME280;39559;48.630;9.162;2023-05-23T11:48:44;97570.03;;;17.06;100.00
498;BME280;39559;48.630;9.162;2023-05-23T11:51:10;97576.75;;;16.98;100.00
498;BME280;39559;48.630;9.162;2023-05-23T11:53:35;97571.91;;;17.04;100.00
498;BME280;39559;48.630;9.162;2023-05-23T11:56:01;97569.69;;;16.85;100.00
498;BME280;39559;48.630;9.162;2023-05-23T11:58:36;97568.06;;;16.70;100.00
498;BME280;39559;48.630;9.162;2023-05-23T12:01:06;97566.81;;;16.76;100.00
498;BME280;39559;48.630;9.162;2023-05-23T12:03:46;97563.50;;;16.86;100.00
498;BME280;39559;48.630;9.162;2023-05-23T12:07:26;97562.66;;;16.99;100.00
498;BME280;39559;48.630;9.162;2023-05-23T12:09:55;97557.00;;;16.92;100.00
498;BME280;39559;48.630;9.162;2023-05-23T12:12:22;97562.16;;;16.94;100.00
498;BME280;39559;48.630;9.162;2023-05-23T12:14:47;97563.28;;;17.02;100.00
498;BME280;39559;48.630;9.162;2023-05-23T12:17:13;97562.47;;;17.27;100.00
498;BME280;39559;48.630;9.162;2023-05-23T12:19:44;97563.00;;;17.07;100.00
498;BME280;39559;48.630;9.162;2023-05-23T12:22:09;97560.31;;;16.81;100.00
498;BME280;39559;48.630;9.162;2023-05-23T12:24:35;97560.84;;;16.74;100.00
498;BME280;39559;48.630;9.162;2023-05-23T12:27:01;97563.56;;;16.72;100.00
498;BME280;39559;48.630;9.162;2023-05-23T12:31:24;97557.75;;;16.94;100.00
498;BME280;39559;48.630;9.162;2023-05-23T12:33:51;97553.13;;;16.98;100.00
498;BME280;39559;48.630;9.162;2023-05-23T12:36:22;97540.84;;;17.37;100.00
498;BME280;39559;48.630;9.162;2023-05-23T12:38:48;97551.84;;;17.55;100.00
498;BME280;39559;48.630;9.162;2023-05-23T12:41:16;97549.25;;;17.16;100.00
498;BME280;39559;48.630;9.162;2023-05-23T12:43:49;97561.09;;;17.09;100.00
498;BME280;39559;48.630;9.162;2023-05-23T12:46:16;97555.31;;;16.91;100.00
498;BME280;39559;48.630;9.162;2023-05-23T12:48:42;97556.75;;;16.82;100.00
498;BME280;39559;48.630;9.162;2023-05-23T12:51:07;97556.81;;;16.68;100.00
498;BME280;39559;48.630;9.162;2023-05-23T12:55:18;97553.22;;;17.35;100.00
498;BME280;39559;48.630;9.162;2023-05-23T12:57:43;97539.94;;;17.88;100.00
498;BME280;39559;48.630;9.162;2023-05-23T13:00:10;97540.34;;;18.18;96.80
498;BME280;39559;48.630;9.162;2023-05-23T13:02:36;97529.47;;;18.36;93.96
498;BME280;39559;48.630;9.162;2023-05-23T13:05:01;97530.06;;;18.15;98.27
498;BME280;39559;48.630;9.162;2023-05-23T13:07:27;97537.84;;;17.80;95.54
498;BME280;39559;48.630;9.162;2023-05-23T13:09:53;97536.78;;;17.70;96.52
498;BME280;39559;48.630;9.162;2023-05-23T13:12:19;97533.25;;;17.58;100.00
498;BME280;39559;48.630;9.162;2023-05-23T13:14:45;97533.53;;;17.66;98.27
498;BME280;39559;48.630;9.162;2023-05-23T13:19:13;97533.66;;;17.52;100.00
498;BME280;39559;48.630;9.162;2023-05-23T13:21:39;97540.44;;;17.30;100.00
498;BME280;39559;48.630;9.162;2023-05-23T13:24:05;97546.63;;;17.03;98.37
498;BME280;39559;48.630;9.162;2023-05-23T13:26:30;97548.81;;;17.10;99.92
498;BME280;39559;48.630;9.162;2023-05-23T13:28:56;97545.91;;;17.14;100.00
498;BME280;39559;48.630;9.162;2023-05-23T13:31:21;97545.78;;;17.29;100.00
498;BME280;39559;48.630;9.162;2023-05-23T13:33:47;97545.06;;;17.26;98.56
498;BME280;39559;48.630;9.162;2023-05-23T13:36:12;97537.00;;;17.79;100.00
498;BME280;39559;48.630;9.162;2023-05-23T13:38:38;97536.16;;;18.40;95.89
498;BME280;39559;48.630;9.162;2023-05-23T13:43:10;97535.66;;;18.11;91.75
498;BME280;39559;48.630;9.162;2023-05-23T13:45:35;97537.63;;;17.83;90.23
498;BME280;39559;48.630;9.162;2023-05-23T13:48:01;97537.53;;;17.72;91.31
498;BME280;39559;48.630;9.162;2023-05-23T13:50:27;97539.13;;;17.61;89.08
498;BME280;39559;48.630;9.162;2023-05-23T13:52:53;97538.66;;;17.80;95.50
498;BME280;39559;48.630;9.162;2023-05-23T13:55:18;97532.53;;;18.06;89.21
498;BME280;39559;48.630;9.162;2023-05-23T13:57:44;97527.69;;;18.48;88.23
498;BME280;39559;48.630;9.162;2023-05-23T14:00:10;97526.47;;;18.40;90.52
498;BME280;39559;48.630;9.162;2023-05-23T14:02:36;97524.47;;;17.96;88.38
498;BME280;39559;48.630;9.162;2023-05-23T14:07:03;97529.38;;;17.63;92.67
498;BME280;39559;48.630;9.162;2023-05-23T14:09:28;97527.41;;;17.41;94.75
498;BME280;39559;48.630;9.162;2023-05-23T14:11:54;97533.28;;;17.32;95.08
498;BME280;39559;48.630;9.162;2023-05-23T14:14:19;97534.25;;;17.18;98.32
498;BME280;39559;48.630;9.162;2023-05-23T14:16:45;97532.25;;;17.09;96.80
498;BME280;39559;48.630;9.162;2023-05-23T14:19:11;97536.84;;;16.93;97.47
498;BME280;39559;48.630;9.162;2023-05-23T14:21:36;97540.13;;;16.96;100.00
498;BME280;39559;48.630;9.162;2023-05-23T14:24:03;97543.78;;;16.94;98.53
498;BME280;39559;48.630;9.162;2023-05-23T14:26:28;97547.25;;;16.94;100.00
498;BME280;39559;48.630;9.162;2023-05-23T14:30:59;97550.63;;;16.69;100.00
498;BME280;39559;48.630;9.162;2023-05-23T14:33:25;97538.06;;;16.74;98.66
498;BME280;39559;48.630;9.162;2023-05-23T14:35:51;97542.16;;;16.78;96.03
498;BME280;39559;48.630;9.162;2023-05-23T14:38:17;97542.72;;;16.83;99.41